sensor_id;sensor_type;location;lat;lon;timestamp;pressure;altitude;pressure_sealevel;temperature;humidity
46079;BME280;31820;51.880;-0.518;2022-09-27T00:00:36;98395.97;;;15.59;72.16
46079;BME280;31820;51.880;-0.518;2022-09-27T00:03:02;98417.31;;;15.62;72.16
46079;BME280;31820;51.880;-0.518;2022-09-27T00:05:28;98414.16;;;15.59;72.17
46079;BME280;31820;51.880;-0.518;2022-09-27T00:07:53;98422.75;;;15.62;72.16
46079;BME280;31820;51.880;-0.518;2022-09-27T00:10:19;98414.59;;;15.62;72.19
46079;BME280;31820;51.880;-0.518;2022-09-27T00:12:45;98416.47;;;15.62;72.26
46079;BME280;31820;51.880;-0.518;2022-09-27T00:15:11;98405.81;;;15.60;72.09
46079;BME280;31820;51.880;-0.518;2022-09-27T00:17:37;98417.72;;;15.59;72.20
46079;BME280;31820;51.880;-0.518;2022-09-27T00:20:04;98413.97;;;15.60;72.16
46079;BME280;31820;51.880;-0.518;2022-09-27T00:22:30;98412.28;;;15.59;72.31
46079;BME280;31820;51.880;-0.518;2022-09-27T00:24:56;98406.84;;;15.59;72.25
46079;BME280;31820;51.880;-0.518;2022-09-27T00:27:22;98418.56;;;15.60;72.28
46079;BME280;31820;51.880;-0.518;2022-09-27T00:29:47;98413.34;;;15.58;72.32
46079;BME280;31820;51.880;-0.518;2022-09-27T00:32:13;98415.00;;;15.59;72.35
46079;BME280;31820;51.880;-0.518;2022-09-27T00:34:40;98414.38;;;15.57;72.14
46079;BME280;31820;51.880;-0.518;2022-09-27T00:37:07;98418.97;;;15.56;72.39
46079;BME280;31820;51.880;-0.518;2022-09-27T00:39:32;98411.84;;;15.55;72.44
46079;BME280;31820;51.880;-0.518;2022-09-27T00:41:58;98412.72;;;15.56;72.42
46079;BME280;31820;51.880;-0.518;2022-09-27T00:46:59;98419.16;;;15.55;72.51
46079;BME280;31820;51.880;-0.518;2022-09-27T00:52:24;98377.31;;;15.49;72.43
46079;BME280;31820;51.880;-0.518;2022-09-27T00:54:54;98386.97;;;15.52;72.52
46079;BME280;31820;51.880;-0.518;2022-09-27T00:57:22;98400.53;;;15.52;72.59
46079;BME280;31820;51.880;-0.518;2022-09-27T01:00:01;98419.75;;;15.50;72.47
46079;BME280;31820;51.880;-0.518;2022-09-27T01:02:27;98401.06;;;15.34;72.48
46079;BME280;31820;51.880;-0.518;2022-09-27T01:04:54;98435.03;;;15.51;72.62
46079;BME280;31820;51.880;-0.518;2022-09-27T01:07:21;98426.03;;;15.51;72.51
46079;BME280;31820;51.880;-0.518;2022-09-27T01:09:49;98424.38;;;15.50;72.42
46079;BME280;31820;51.880;-0.518;2022-09-27T01:26:39;98417.63;;;15.46;72.70
46079;BME280;31820;51.880;-0.518;2022-09-27T01:32:18;98419.53;;;15.45;72.63
46079;BME280;31820;51.880;-0.518;2022-09-27T01:40:17;98405.09;;;15.45;72.73
46079;BME280;31820;51.880;-0.518;2022-09-27T01:43:05;98398.00;;;15.44;72.50
46079;BME280;31820;51.880;-0.518;2022-09-27T01:48:40;98396.69;;;15.40;72.76
46079;BME280;31820;51.880;-0.518;2022-09-27T01:51:15;98408.19;;;15.42;72.72
46079;BME280;31820;51.880;-0.518;2022-09-27T01:53:45;98401.09;;;15.41;72.68
46079;BME280;31820;51.880;-0.518;2022-09-27T01:56:40;98405.47;;;15.42;72.80
46079;BME280;31820;51.880;-0.518;2022-09-27T01:59:12;98396.69;;;15.40;72.72
46079;BME280;31820;51.880;-0.518;2022-09-27T02:01:41;98388.75;;;15.38;72.84
46079;BME280;31820;51.880;-0.518;2022-09-27T02:04:11;98384.38;;;15.37;72.76
46079;BME280;31820;51.880;-0.518;2022-09-27T02:06:44;98396.91;;;15.38;73.01
46079;BME280;31820;51.880;-0.518;2022-09-27T02:09:19;98390.63;;;15.37;72.88
46079;BME280;31820;51.880;-0.518;2022-09-27T02:11:54;98401.69;;;15.36;72.94
46079;BME280;31820;51.880;-0.518;2022-09-27T02:19:53;98383.91;;;15.33;72.80
46079;BME280;31820;51.880;-0.518;2022-09-27T02:22:40;98384.78;;;15.34;72.92
46079;BME280;31820;51.880;-0.518;2022-09-27T02:25:19;98384.97;;;15.32;72.98
46079;BME280;31820;51.880;-0.518;2022-09-27T02:30:16;98373.66;;;15.29;73.13
46079;BME280;31820;51.880;-0.518;2022-09-27T02:32:42;98376.16;;;15.30;73.12
46079;BME280;31820;51.880;-0.518;2022-09-27T02:35:30;98374.31;;;15.31;73.19
46079;BME280;31820;51.880;-0.518;2022-09-27T02:37:56;98368.00;;;15.30;72.95
46079;BME280;31820;51.880;-0.518;2022-09-27T02:40:23;98372.81;;;15.28;73.02
46079;BME280;31820;51.880;-0.518;2022-09-27T02:42:49;98362.16;;;15.27;73.14
46079;BME280;31820;51.880;-0.518;2022-09-27T02:45:16;98364.88;;;15.27;73.13
46079;BME280;31820;51.880;-0.518;2022-09-27T02:48:05;98364.88;;;15.27;73.34
46079;BME280;31820;51.880;-0.518;2022-09-27T02:53:37;98361.91;;;15.22;73.06
46079;BME280;31820;51.880;-0.518;2022-09-27T02:56:26;98360.66;;;15.24;73.12
46079;BME280;31820;51.880;-0.518;2022-09-27T02:59:06;98367.16;;;15.23;73.23
46079;BME280;31820;51.880;-0.518;2022-09-27T03:02:03;98356.50;;;15.22;73.23
46079;BME280;31820;51.880;-0.518;2022-09-27T03:06:59;98361.06;;;15.21;73.40
46079;BME280;31820;51.880;-0.518;2022-09-27T03:09:49;98360.44;;;15.19;73.41
46079;BME280;31820;51.880;-0.518;2022-09-27T03:12:17;98360.44;;;15.19;73.49
46079;BME280;31820;51.880;-0.518;2022-09-27T03:14:47;98364.59;;;15.15;73.63
46079;BME280;31820;51.880;-0.518;2022-09-27T03:17:13;98365.22;;;15.17;73.54
46079;BME280;31820;51.880;-0.518;2022-09-27T03:19:39;98360.00;;;15.15;73.47
46079;BME280;31820;51.880;-0.518;2022-09-27T03:22:05;98360.00;;;15.15;73.37
46079;BME280;31820;51.880;-0.518;2022-09-27T03:24:31;98358.31;;;15.14;73.67
46079;BME280;31820;51.880;-0.518;2022-09-27T03:26:56;98360.19;;;15.14;73.66
46079;BME280;31820;51.880;-0.518;2022-09-27T03:29:22;98360.19;;;15.14;73.62
46079;BME280;31820;51.880;-0.518;2022-09-27T03:31:47;98352.44;;;15.11;73.72
46079;BME280;31820;51.880;-0.518;2022-09-27T03:34:13;98334.63;;;15.01;73.56
46079;BME280;31820;51.880;-0.518;2022-09-27T03:36:38;98355.97;;;15.11;73.48
46079;BME280;31820;51.880;-0.518;2022-09-27T03:39:04;98357.03;;;15.10;73.57
46079;BME280;31820;51.880;-0.518;2022-09-27T03:41:29;98354.31;;;15.10;73.60
46079;BME280;31820;51.880;-0.518;2022-09-27T03:43:55;98335.53;;;15.09;73.65
46079;BME280;31820;51.880;-0.518;2022-09-27T03:46:22;98343.66;;;15.09;73.66
46079;BME280;31820;51.880;-0.518;2022-09-27T03:48:48;98342.81;;;15.08;73.84
46079;BME280;31820;51.880;-0.518;2022-09-27T03:51:13;98347.41;;;15.08;73.66
46079;BME280;31820;51.880;-0.518;2022-09-27T03:53:38;98352.19;;;15.06;73.83
46079;BME280;31820;51.880;-0.518;2022-09-27T03:56:04;98361.19;;;15.06;73.89
46079;BME280;31820;51.880;-0.518;2022-09-27T03:58:30;98355.75;;;15.06;73.58
46079;BME280;31820;51.880;-0.518;2022-09-27T04:00:55;98352.19;;;15.06;73.68
46079;BME280;31820;51.880;-0.518;2022-09-27T04:03:20;98364.91;;;15.05;73.64
46079;BME280;31820;51.880;-0.518;2022-09-27T04:05:46;98356.97;;;15.04;73.82
46079;BME280;31820;51.880;-0.518;2022-09-27T04:08:12;98370.53;;;15.04;73.75
46079;BME280;31820;51.880;-0.518;2022-09-27T04:10:37;98362.41;;;15.04;73.71
46079;BME280;31820;51.880;-0.518;2022-09-27T04:13:04;98366.38;;;15.01;73.58
46079;BME280;31820;51.880;-0.518;2022-09-27T04:15:29;98357.16;;;15.02;73.86
46079;BME280;31820;51.880;-0.518;2022-09-27T04:17:55;98360.75;;;15.02;73.67
46079;BME280;31820;51.880;-0.518;2022-09-27T04:20:20;98353.00;;;14.99;73.75
46079;BME280;31820;51.880;-0.518;2022-09-27T04:22:46;98349.03;;;15.02;73.85
46079;BME280;31820;51.880;-0.518;2022-09-27T04:25:12;98349.88;;;15.02;73.75
46079;BME280;31820;51.880;-0.518;2022-09-27T04:27:37;98335.84;;;14.99;73.84
46079;BME280;31820;51.880;-0.518;2022-09-27T04:30:03;98335.66;;;15.00;73.87
46079;BME280;31820;51.880;-0.518;2022-09-27T04:32:30;98333.78;;;15.01;73.72
46079;BME280;31820;51.880;-0.518;2022-09-27T04:34:56;98332.94;;;15.00;74.02
46079;BME280;31820;51.880;-0.518;2022-09-27T04:37:40;98327.50;;;15.00;73.68
46079;BME280;31820;51.880;-0.518;2022-09-27T04:40:06;98333.13;;;14.99;73.87
46079;BME280;31820;51.880;-0.518;2022-09-27T04:42:32;98330.41;;;14.99;74.03
46079;BME280;31820;51.880;-0.518;2022-09-27T04:44:58;98328.75;;;14.98;73.69
46079;BME280;31820;51.880;-0.518;2022-09-27T04:47:23;98328.75;;;14.98;73.87
46079;BME280;31820;51.880;-0.518;2022-09-27T04:49:49;98326.25;;;14.96;73.92
46079;BME280;31820;51.880;-0.518;2022-09-27T04:52:14;98335.84;;;14.99;73.67
46079;BME280;31820;51.880;-0.518;2022-09-27T04:54:40;98324.16;;;14.98;73.64
46079;BME280;31820;51.880;-0.518;2022-09-27T04:57:07;98324.16;;;14.98;73.80
46079;BME280;31820;51.880;-0.518;2022-09-27T04:59:32;98331.47;;;14.98;73.77
46079;BME280;31820;51.880;-0.518;2022-09-27T05:01:58;98321.84;;;14.95;73.75
46079;BME280;31820;51.880;-0.518;2022-09-27T05:04:26;98317.03;;;14.97;73.52
46079;BME280;31820;51.880;-0.518;2022-09-27T05:06:52;98321.66;;;14.97;73.67
46079;BME280;31820;51.880;-0.518;2022-09-27T05:09:18;98318.09;;;14.96;73.53
46079;BME280;31820;51.880;-0.518;2022-09-27T05:11:43;98326.25;;;14.96;73.96
46079;BME280;31820;51.880;-0.518;2022-09-27T05:14:09;98314.53;;;14.96;73.92
46079;BME280;31820;51.880;-0.518;2022-09-27T05:16:35;98318.94;;;14.97;73.85
46079;BME280;31820;51.880;-0.518;2022-09-27T05:19:01;98316.41;;;14.95;73.99
46079;BME280;31820;51.880;-0.518;2022-09-27T05:21:27;98314.53;;;14.96;73.62
46079;BME280;31820;51.880;-0.518;2022-09-27T05:23:52;98316.41;;;14.95;73.82
46079;BME280;31820;51.880;-0.518;2022-09-27T05:26:18;98316.41;;;14.95;73.90
46079;BME280;31820;51.880;-0.518;2022-09-27T05:28:45;98313.69;;;14.95;73.94
46079;BME280;31820;51.880;-0.518;2022-09-27T05:31:12;98308.28;;;14.95;73.64
46079;BME280;31820;51.880;-0.518;2022-09-27T05:33:39;98306.59;;;14.94;73.73
46079;BME280;31820;51.880;-0.518;2022-09-27T05:36:05;98312.03;;;14.94;73.71
46079;BME280;31820;51.880;-0.518;2022-09-27T05:38:31;98312.03;;;14.94;73.75
46079;BME280;31820;51.880;-0.518;2022-09-27T05:40:56;98305.75;;;14.94;73.90
46079;BME280;31820;51.880;-0.518;2022-09-27T05:43:22;98309.72;;;14.91;73.83
46079;BME280;31820;51.880;-0.518;2022-09-27T05:45:49;98297.19;;;14.90;73.93
46079;BME280;31820;51.880;-0.518;2022-09-27T05:48:17;98308.47;;;14.94;73.78
46079;BME280;31820;51.880;-0.518;2022-09-27T05:50:42;98297.81;;;14.92;73.60
46079;BME280;31820;51.880;-0.518;2022-09-27T05:53:09;98290.91;;;14.90;73.71
46079;BME280;31820;51.880;-0.518;2022-09-27T05:55:35;98300.91;;;14.89;73.85
46079;BME280;31820;51.880;-0.518;2022-09-27T05:58:03;98296.34;;;14.90;73.70
46079;BME280;31820;51.880;-0.518;2022-09-27T06:00:30;98302.00;;;14.95;73.39
46079;BME280;31820;51.880;-0.518;2022-09-27T06:03:03;98304.72;;;14.95;73.65
46079;BME280;31820;51.880;-0.518;2022-09-27T06:05:33;98307.44;;;14.95;73.55
46079;BME280;31820;51.880;-0.518;2022-09-27T06:08:05;98308.28;;;14.95;73.66
46079;BME280;31820;51.880;-0.518;2022-09-27T06:10:32;98314.53;;;14.96;73.45
46079;BME280;31820;51.880;-0.518;2022-09-27T06:13:03;98318.09;;;14.96;73.49
46079;BME280;31820;51.880;-0.518;2022-09-27T06:15:30;98306.19;;;14.97;73.21
46079;BME280;31820;51.880;-0.518;2022-09-27T06:18:02;98309.75;;;14.98;73.41
46079;BME280;31820;51.880;-0.518;2022-09-27T06:20:28;98302.00;;;14.95;73.29
46079;BME280;31820;51.880;-0.518;2022-09-27T06:22:54;98299.09;;;14.96;73.43
46079;BME280;31820;51.880;-0.518;2022-09-27T06:25:19;98304.13;;;14.99;73.40
46079;BME280;31820;51.880;-0.518;2022-09-27T06:27:45;98296.00;;;14.99;73.38
46079;BME280;31820;51.880;-0.518;2022-09-27T06:30:11;98289.50;;;15.00;73.26
46079;BME280;31820;51.880;-0.518;2022-09-27T06:32:37;98297.00;;;14.98;73.14
46079;BME280;31820;51.880;-0.518;2022-09-27T06:35:03;98293.06;;;15.01;73.19
46079;BME280;31820;51.880;-0.518;2022-09-27T06:37:30;98296.81;;;15.00;73.25
46079;BME280;31820;51.880;-0.518;2022-09-27T06:39:55;98302.03;;;15.01;72.99
46079;BME280;31820;51.880;-0.518;2022-09-27T06:42:21;98294.94;;;15.00;73.26
46079;BME280;31820;51.880;-0.518;2022-09-27T06:44:47;98289.31;;;15.02;72.97
46079;BME280;31820;51.880;-0.518;2022-09-27T06:47:17;98279.00;;;14.91;72.94
46079;BME280;31820;51.880;-0.518;2022-09-27T06:49:43;98301.66;;;15.05;73.23
46079;BME280;31820;51.880;-0.518;2022-09-27T06:52:09;98282.38;;;14.93;72.97
46079;BME280;31820;51.880;-0.518;2022-09-27T06:54:35;98297.91;;;15.06;72.74
46079;BME280;31820;51.880;-0.518;2022-09-27T06:57:01;98293.31;;;15.06;72.75
46079;BME280;31820;51.880;-0.518;2022-09-27T06:59:26;98292.47;;;15.06;72.63
46079;BME280;31820;51.880;-0.518;2022-09-27T07:02:10;98289.75;;;15.06;72.51
46079;BME280;31820;51.880;-0.518;2022-09-27T07:04:38;98288.72;;;15.07;72.57
46079;BME280;31820;51.880;-0.518;2022-09-27T07:07:04;98290.59;;;15.06;72.90
46079;BME280;31820;51.880;-0.518;2022-09-27T07:09:30;98284.13;;;15.07;72.54
46079;BME280;31820;51.880;-0.518;2022-09-27T07:11:55;98289.16;;;15.10;72.52
46079;BME280;31820;51.880;-0.518;2022-09-27T07:14:21;98290.63;;;15.13;72.21
46079;BME280;31820;51.880;-0.518;2022-09-27T07:16:46;98284.56;;;15.11;72.17
46079;BME280;31820;51.880;-0.518;2022-09-27T07:19:12;98291.09;;;15.16;72.19
46079;BME280;31820;51.880;-0.518;2022-09-27T07:21:38;98290.84;;;15.18;72.27
46079;BME280;31820;51.880;-0.518;2022-09-27T07:24:04;98290.03;;;15.17;72.30
46079;BME280;31820;51.880;-0.518;2022-09-27T07:26:30;98274.78;;;15.16;72.13
46079;BME280;31820;51.880;-0.518;2022-09-27T07:28:55;98287.94;;;15.19;71.57
46079;BME280;31820;51.880;-0.518;2022-09-27T07:31:21;98281.69;;;15.19;72.08
46079;BME280;31820;51.880;-0.518;2022-09-27T07:33:49;98273.34;;;15.20;72.01
46079;BME280;31820;51.880;-0.518;2022-09-27T07:36:14;98279.59;;;15.21;71.71
46079;BME280;31820;51.880;-0.518;2022-09-27T07:38:40;98278.78;;;15.20;71.82
46079;BME280;31820;51.880;-0.518;2022-09-27T07:41:10;98276.28;;;15.26;71.64
46079;BME280;31820;51.880;-0.518;2022-09-27T07:43:39;98282.16;;;15.29;71.47
46079;BME280;31820;51.880;-0.518;2022-09-27T07:46:04;98267.50;;;15.24;71.61
46079;BME280;31820;51.880;-0.518;2022-09-27T07:48:30;98272.75;;;15.25;71.45
46079;BME280;31820;51.880;-0.518;2022-09-27T07:50:56;98264.59;;;15.25;71.40
46079;BME280;31820;51.880;-0.518;2022-09-27T07:53:21;98257.06;;;15.27;71.59
46079;BME280;31820;51.880;-0.518;2022-09-27T07:55:49;98252.91;;;15.31;71.48
46079;BME280;31820;51.880;-0.518;2022-09-27T07:58:17;98251.50;;;15.35;71.13
46079;BME280;31820;51.880;-0.518;2022-09-27T08:00:43;98254.63;;;15.39;70.91
46079;BME280;31820;51.880;-0.518;2022-09-27T08:03:14;98253.38;;;15.42;70.92
46079;BME280;31820;51.880;-0.518;2022-09-27T08:05:41;98250.03;;;15.40;70.76
46079;BME280;31820;51.880;-0.518;2022-09-27T08:08:07;98246.06;;;15.35;70.91
46079;BME280;31820;51.880;-0.518;2022-09-27T08:10:33;98246.06;;;15.35;71.07
46079;BME280;31820;51.880;-0.518;2022-09-27T08:13:03;98247.91;;;15.35;70.95
46079;BME280;31820;51.880;-0.518;2022-09-27T08:15:33;98247.91;;;15.35;70.82
46079;BME280;31820;51.880;-0.518;2022-09-27T08:18:02;98241.66;;;15.34;71.02
46079;BME280;31820;51.880;-0.518;2022-09-27T08:20:28;98238.75;;;15.36;71.13
46079;BME280;31820;51.880;-0.518;2022-09-27T08:22:53;98235.59;;;15.32;70.83
46079;BME280;31820;51.880;-0.518;2022-09-27T08:25:19;98237.47;;;15.38;70.74
46079;BME280;31820;51.880;-0.518;2022-09-27T08:27:56;98237.47;;;15.38;70.52
46079;BME280;31820;51.880;-0.518;2022-09-27T08:30:22;98245.84;;;15.37;70.72
46079;BME280;31820;51.880;-0.518;2022-09-27T08:32:47;98237.91;;;15.35;70.57
46079;BME280;31820;51.880;-0.518;2022-09-27T08:35:13;98212.56;;;15.22;70.50
46079;BME280;31820;51.880;-0.518;2022-09-27T08:37:40;98247.13;;;15.48;70.22
46079;BME280;31820;51.880;-0.518;2022-09-27T08:40:06;98243.19;;;15.50;70.18
46079;BME280;31820;51.880;-0.518;2022-09-27T08:42:45;98237.13;;;15.48;70.18
46079;BME280;31820;51.880;-0.518;2022-09-27T08:45:17;98239.84;;;15.48;70.16
46079;BME280;31820;51.880;-0.518;2022-09-27T08:47:52;98218.31;;;15.47;70.11
46079;BME280;31820;51.880;-0.518;2022-09-27T08:50:27;98228.38;;;15.53;69.85
46079;BME280;31820;51.880;-0.518;2022-09-27T08:53:01;98220.44;;;15.58;69.68
46079;BME280;31820;51.880;-0.518;2022-09-27T08:57:58;98227.16;;;15.76;68.86
46079;BME280;31820;51.880;-0.518;2022-09-27T09:00:24;98231.38;;;15.78;68.92
46079;BME280;31820;51.880;-0.518;2022-09-27T09:02:51;98224.28;;;15.84;68.74
46079;BME280;31820;51.880;-0.518;2022-09-27T09:05:29;98227.81;;;15.84;68.54
46079;BME280;31820;51.880;-0.518;2022-09-27T09:08:19;98234.53;;;15.82;68.71
46079;BME280;31820;51.880;-0.518;2022-09-27T09:10:52;98230.94;;;15.81;68.63
46079;BME280;31820;51.880;-0.518;2022-09-27T09:14:05;98228.25;;;15.88;68.36
46079;BME280;31820;51.880;-0.518;2022-09-27T09:16:43;98231.59;;;15.97;68.00
46079;BME280;31820;51.880;-0.518;2022-09-27T09:19:27;98222.41;;;15.98;67.92
46079;BME280;31820;51.880;-0.518;2022-09-27T09:28:37;98224.94;;;15.99;67.87
46079;BME280;31820;51.880;-0.518;2022-09-27T09:30:52;98218.66;;;15.99;67.76
46079;BME280;31820;51.880;-0.518;2022-09-27T09:36:01;98216.38;;;16.02;67.53
46079;BME280;31820;51.880;-0.518;2022-09-27T09:41:01;98213.84;;;16.07;67.44
46079;BME280;31820;51.880;-0.518;2022-09-27T09:46:32;98206.97;;;16.12;67.26
46079;BME280;31820;51.880;-0.518;2022-09-27T09:49:08;98205.69;;;16.07;67.16
46079;BME280;31820;51.880;-0.518;2022-09-27T09:51:39;98213.84;;;16.01;67.41
46079;BME280;31820;51.880;-0.518;2022-09-27T09:54:18;98213.03;;;16.07;67.31
46079;BME280;31820;51.880;-0.518;2022-09-27T09:56:48;98204.66;;;16.15;66.98
46079;BME280;31820;51.880;-0.518;2022-09-27T09:59:25;98201.31;;;16.13;67.05
46079;BME280;31820;51.880;-0.518;2022-09-27T10:01:53;98206.53;;;16.15;66.83
46079;BME280;31820;51.880;-0.518;2022-09-27T10:04:25;98195.63;;;16.08;66.98
46079;BME280;31820;51.880;-0.518;2022-09-27T10:06:58;98191.66;;;16.17;66.69
46079;BME280;31820;51.880;-0.518;2022-09-27T10:09:26;98193.78;;;16.35;66.09
46079;BME280;31820;51.880;-0.518;2022-09-27T10:11:52;98192.09;;;16.34;65.71
46079;BME280;31820;51.880;-0.518;2022-09-27T10:14:20;98197.75;;;16.33;65.77
46079;BME280;31820;51.880;-0.518;2022-09-27T10:16:48;98192.94;;;16.28;66.08
46079;BME280;31820;51.880;-0.518;2022-09-27T10:19:22;98183.31;;;16.19;66.47
46079;BME280;31820;51.880;-0.518;2022-09-27T10:21:51;98187.09;;;16.18;66.67
46079;BME280;31820;51.880;-0.518;2022-09-27T10:24:17;98180.78;;;16.17;66.50
46079;BME280;31820;51.880;-0.518;2022-09-27T10:26:45;98182.91;;;16.15;66.53
46079;BME280;31820;51.880;-0.518;2022-09-27T10:31:47;98177.22;;;16.03;67.17
46079;BME280;31820;51.880;-0.518;2022-09-27T10:34:32;98172.00;;;16.02;67.22
46079;BME280;31820;51.880;-0.518;2022-09-27T10:37:25;98181.66;;;16.18;66.67
46079;BME280;31820;51.880;-0.518;2022-09-27T10:39:50;98176.84;;;16.13;66.47
46079;BME280;31820;51.880;-0.518;2022-09-27T10:42:29;98173.06;;;16.07;66.89
46079;BME280;31820;51.880;-0.518;2022-09-27T10:44:55;98169.06;;;16.03;67.00
46079;BME280;31820;51.880;-0.518;2022-09-27T10:47:22;98159.47;;;16.01;67.14
46079;BME280;31820;51.880;-0.518;2022-09-27T10:49:50;98165.31;;;16.04;67.02
46079;BME280;31820;51.880;-0.518;2022-09-27T10:52:18;98171.19;;;16.21;66.45
46079;BME280;31820;51.880;-0.518;2022-09-27T10:54:57;98162.41;;;16.26;66.19
46079;BME280;31820;51.880;-0.518;2022-09-27T10:57:26;98157.78;;;16.33;65.83
46079;BME280;31820;51.880;-0.518;2022-09-27T11:00:02;98155.03;;;16.46;65.37
46079;BME280;31820;51.880;-0.518;2022-09-27T11:02:35;98133.91;;;16.49;65.06
46079;BME280;31820;51.880;-0.518;2022-09-27T11:05:12;98137.03;;;16.45;65.26
46079;BME280;31820;51.880;-0.518;2022-09-27T11:07:50;98141.41;;;16.53;65.00
46079;BME280;31820;51.880;-0.518;2022-09-27T11:10:27;98137.25;;;16.57;64.57
46079;BME280;31820;51.880;-0.518;2022-09-27T11:13:22;98128.88;;;16.59;64.55
46079;BME280;31820;51.880;-0.518;2022-09-27T11:18:44;98132.16;;;16.68;64.15
46079;BME280;31820;51.880;-0.518;2022-09-27T11:21:51;98136.16;;;16.65;64.15
46079;BME280;31820;51.880;-0.518;2022-09-27T11:27:41;98128.84;;;16.66;64.42
46079;BME280;31820;51.880;-0.518;2022-09-27T11:30:16;98127.94;;;16.78;63.76
46079;BME280;31820;51.880;-0.518;2022-09-27T11:33:06;98121.66;;;16.85;63.36
46079;BME280;31820;51.880;-0.518;2022-09-27T11:41:43;98128.44;;;16.55;64.43
46079;BME280;31820;51.880;-0.518;2022-09-27T11:52:42;98149.22;;;16.09;66.10
46079;BME280;31820;51.880;-0.518;2022-09-27T11:58:01;98175.56;;;16.02;66.53
46079;BME280;31820;51.880;-0.518;2022-09-27T12:06:06;98163.03;;;16.01;66.30
46079;BME280;31820;51.880;-0.518;2022-09-27T12:16:25;98151.31;;;16.21;65.68
46079;BME280;31820;51.880;-0.518;2022-09-27T12:18:52;98148.81;;;16.19;65.48
46079;BME280;31820;51.880;-0.518;2022-09-27T12:21:19;98151.09;;;16.16;65.79
46079;BME280;31820;51.880;-0.518;2022-09-27T12:23:53;98141.69;;;16.12;65.96
46079;BME280;31820;51.880;-0.518;2022-09-27T12:26:40;98136.03;;;16.06;66.40
46079;BME280;31820;51.880;-0.518;2022-09-27T12:29:24;98127.44;;;16.09;66.33
46079;BME280;31820;51.880;-0.518;2022-09-27T12:31:53;98135.19;;;16.13;66.13
46079;BME280;31820;51.880;-0.518;2022-09-27T12:34:26;98128.09;;;16.18;65.82
46079;BME280;31820;51.880;-0.518;2022-09-27T12:39:40;98128.06;;;16.32;65.33
46079;BME280;31820;51.880;-0.518;2022-09-27T12:42:24;98124.31;;;16.26;65.55
46079;BME280;31820;51.880;-0.518;2022-09-27T12:44:50;98126.19;;;16.32;65.20
46079;BME280;31820;51.880;-0.518;2022-09-27T12:47:38;98122.84;;;16.37;64.76
46079;BME280;31820;51.880;-0.518;2022-09-27T12:53:02;98124.72;;;16.30;65.31
46079;BME280;31820;51.880;-0.518;2022-09-27T13:13:15;98080.38;;;16.16;65.50
46079;BME280;31820;51.880;-0.518;2022-09-27T13:15:43;98088.53;;;16.16;65.79
46079;BME280;31820;51.880;-0.518;2022-09-27T13:20:53;98072.88;;;16.11;65.97
46079;BME280;31820;51.880;-0.518;2022-09-27T13:25:59;98063.91;;;16.04;66.36
46079;BME280;31820;51.880;-0.518;2022-09-27T13:31:03;98062.63;;;16.00;66.45
46079;BME280;31820;51.880;-0.518;2022-09-27T13:41:19;98051.09;;;16.11;66.17
46079;BME280;31820;51.880;-0.518;2022-09-27T13:46:20;98058.59;;;16.22;65.75
46079;BME280;31820;51.880;-0.518;2022-09-27T13:48:55;98031.41;;;16.22;65.62
46079;BME280;31820;51.880;-0.518;2022-09-27T13:51:50;98039.16;;;16.19;65.92
46079;BME280;31820;51.880;-0.518;2022-09-27T13:54:38;98032.94;;;16.12;66.01
46079;BME280;31820;51.880;-0.518;2022-09-27T14:00:16;98041.50;;;16.15;65.89
46079;BME280;31820;51.880;-0.518;2022-09-27T14:05:38;98046.75;;;16.10;66.25
46079;BME280;31820;51.880;-0.518;2022-09-27T14:08:17;98046.31;;;16.00;66.64
46079;BME280;31820;51.880;-0.518;2022-09-27T14:10:44;98043.19;;;15.96;66.82
46079;BME280;31820;51.880;-0.518;2022-09-27T14:13:15;98046.53;;;15.98;66.64
46079;BME280;31820;51.880;-0.518;2022-09-27T14:15:44;98040.47;;;16.03;66.46
46079;BME280;31820;51.880;-0.518;2022-09-27T14:18:11;98049.47;;;16.10;66.20
46079;BME280;31820;51.880;-0.518;2022-09-27T14:20:47;98033.97;;;16.10;66.31
46079;BME280;31820;51.880;-0.518;2022-09-27T14:23:21;98040.88;;;16.06;66.44
46079;BME280;31820;51.880;-0.518;2022-09-27T14:25:49;98039.41;;;16.10;66.17
46079;BME280;31820;51.880;-0.518;2022-09-27T14:28:39;98035.00;;;16.16;66.03
46079;BME280;31820;51.880;-0.518;2022-09-27T14:31:17;98035.41;;;16.20;65.78
46079;BME280;31820;51.880;-0.518;2022-09-27T14:33:43;98022.84;;;16.19;65.83
46079;BME280;31820;51.880;-0.518;2022-09-27T14:36:33;98030.59;;;16.22;65.78
46079;BME280;31820;51.880;-0.518;2022-09-27T14:39:33;98016.16;;;16.21;65.73
46079;BME280;31820;51.880;-0.518;2022-09-27T14:42:04;98020.53;;;16.22;65.58
46079;BME280;31820;51.880;-0.518;2022-09-27T14:44:31;98018.06;;;16.21;65.76
46079;BME280;31820;51.880;-0.518;2022-09-27T14:47:31;98018.47;;;16.24;65.63
46079;BME280;31820;51.880;-0.518;2022-09-27T14:49:59;98018.06;;;16.21;65.63
46079;BME280;31820;51.880;-0.518;2022-09-27T14:52:29;98019.28;;;16.25;65.74
46079;BME280;31820;51.880;-0.518;2022-09-27T14:55:08;98011.72;;;16.27;65.50
46079;BME280;31820;51.880;-0.518;2022-09-27T14:57:35;98010.69;;;16.28;65.46
46079;BME280;31820;51.880;-0.518;2022-09-27T15:00:28;98012.97;;;16.38;65.02
46079;BME280;31820;51.880;-0.518;2022-09-27T15:03:02;98021.53;;;16.35;64.87
46079;BME280;31820;51.880;-0.518;2022-09-27T15:05:32;98026.78;;;16.36;65.18
46079;BME280;31820;51.880;-0.518;2022-09-27T15:08:01;98025.56;;;16.32;65.25
46079;BME280;31820;51.880;-0.518;2022-09-27T15:10:29;98023.91;;;16.24;65.36
46079;BME280;31820;51.880;-0.518;2022-09-27T15:12:56;98023.50;;;16.21;65.77
46079;BME280;31820;51.880;-0.518;2022-09-27T15:15:33;98033.13;;;16.17;65.87
46079;BME280;31820;51.880;-0.518;2022-09-27T15:18:00;98028.75;;;16.09;66.21
46079;BME280;31820;51.880;-0.518;2022-09-27T15:20:33;98030.41;;;16.03;66.43
46079;BME280;31820;51.880;-0.518;2022-09-27T15:23:01;98014.75;;;15.99;66.48
46079;BME280;31820;51.880;-0.518;2022-09-27T15:25:30;98024.56;;;16.00;66.52
46079;BME280;31820;51.880;-0.518;2022-09-27T15:30:37;98027.28;;;16.06;66.20
46079;BME280;31820;51.880;-0.518;2022-09-27T15:33:03;98038.56;;;16.03;66.14
46079;BME280;31820;51.880;-0.518;2022-09-27T15:35:32;98030.88;;;16.00;66.52
46079;BME280;31820;51.880;-0.518;2022-09-27T15:38:33;98032.31;;;15.96;66.51